Terminal Aerodrome Forecast
Issued by NWS North Platte, NE

Home | Current Version | Previous Version | Graphics & Text | Print | Product List | Glossary On
Versions: 1 2 3 4 5 6 7 8 9 10 11 12 13 14 15
000
FTUS43 KLBF 312300
TAFVTN
TAF
KVTN 312320Z 0100/0124 19015KT P6SM SKC
     FM010600 19012KT P6SM SCT200
     FM011500 28013KT P6SM SCT200
     FM011800 33017G27KT P6SM SCT200=

USA.gov is the U.S. government's official web portal to all federal, state and local government web resources and services.